A- A+ FrançaisEnglishEspañol中国

Services sur Internet Soldes sur Internet Des idées de cadeaux Météo Météo aéro

La météo à : Autours de vous Tarbes-Lourdes-PyrénéesLessay Paris-Orly Creil-Senlis

La météo aéronautique pour les pilotes, la préparation du vol avec les METAR (METeorological Aerodrome Report, message d'observation des conditions météorologiques pour l'aviation) et Les TAF (Terminal Aerodrome Forecast : message de prévision à court terme des conditions météorologiques pour l'aviation). Et les autres ressources comme les VAC (Visual Approch Chart) et les NOTAM (Notice To Airman) pour préprer les vols.

Aéroport Exeter (Royaume-Uni) / OACI EGTE/ IATA EXT

L'altitude de l'aéroport Exeter est de 31 m = 102 ft. Il est situé à proximité de Exeter (Royaume-Uni). La météo générale à 5 jours est disponible pour Rockbeare situé à 2.1 km.

METAR de l'aéroport Exeter - EGTE

EGTE 071150Z 22008KT 9999 FEW020 SCT030 10/08 Q1015

Décodage du METAR de l'aéroport Exeter (GB)

METAR émis par EGTE le samedi 7 décembre 2019 à 11:50 heure TU, il y a 26 minutes.

La visibilité est de supérieure à 10 km = supérieure à 6.2 sm.

La température est de 10°C = 50 °F et le point rosée est de 8°C = 46 °F . Ce qui correspond à 87% d'humidité relative.

Le QNH est de 1015 hPa = 29.97 inHg

Vent de 8 kt = 15 km/h, orienté à 220°.

Nuages : Quelques nuages à 2000 ft = 610 mètres. Nuages épars à 3000 ft = 910 mètres.

TAF de l'aéroport Exeter - EGTE

EGTE 061655Z 0618/0703 28009KT 9999 FEW012 SCT025

EGTE 061655Z 0618/0703 28009KT 9999 quelques nuages à 012 nuages épars à 025

Aéroport à proximité de Exeter

Météo générale à 5 jours à Rockbeare (2.1 km)Aéroport Dunkeswell (19 km)Aéroport Merryfield (42 km)Aéroport Eaglescott (46 km)Aéroport Yeovil (58 km)Aéroport Yeovilton (62 km)Aéroport Chivenor (65 km)

VAC de l'aéroport Exeter - EGTE

La carte d'approche à vue (VAC Visual Approah Chart) est fournie sans aucune garantie de son actualité. Le pilote est le seul responsable de la vérification de sa validité avant de l'utiliser opérationnellement pour préparer un vol ou l'utiliser lors de sa navigation.

VAC de EGTE

Vue aérienne de l'aéroport Exeter

NOTAM de l'aéroport Exeter

Les NOTAM sont fournis sans aucune garantie de leur actualité. Le pilote est le seul responsable de la vérification de sa validité avant de l'utiliser opérationnellement pour préparer un vol ou l'utiliser lors de sa navigation.

Pas de NOTAM

Sources des données